Briefing drone pour Brazey-en-plaine

Rechercher une autre localisation

Conditions de vol :


Nous sommes le : Dimanche 19 septembre 2021
Il est 08:49 UTC (10:49 LT)

Lever de soleil : 04:55 UTC (06:55 LT)
Coucher de soleil : 18:09 UTC (20:09 LT)

Météo

L'essentiel des conditions de vol

VIGILANCE MÉTÉO FRANCE - Côte-dOr (21)
Vigilance Jaune : Pluie-inondation
CARTES DES FRONTS
METAR de LFSD
LFSD 190830Z AUTO 19006KT 9999 RA BKN005/// BKN011/// OVC043/// ///TCU 14/13 Q1014

Date d'émission: 19/09/2021
Heure d'émission: 08:30 UTC
Vent: 190° pour 6 KT (11 km/h)
Visibilité horizontale: > 10 km
Plafond :
- Nuages morcelés à 500ft (152m)
- Nuages morcelés à 1100ft (335m)
- Couvert à 4300ft (1311m)
Température: 14 °C
Point de rosée: 13 °C
Humidité: 94%
Pression (QNH): 1014 hPa
Conditions: Pluie
TAF de LFSD
LFSD 010600Z 0100/0124 CNL

Conditions prévues :

Heure d'émission : Bulletin éffectué le 01 à 00:00 UTC
Prévision : Valide du 01 a 00:00 UTC au 01 a 23:59 UTC
Nuages : à 0ft (0 m)
WEBCAM POUR BRAZEY-EN-PLAINE

Réglementation

Voler en sécurité

CARTES AERONAUTIQUE 1/500.000
CARTES VAC (LFSD)
SUP AIP




Chargement des AIP...
NOTAM (BRAZEY-EN-PLAINE + Terrain à proximité / FIR )




Chargement des NOTAMS...
CONTACT PREFECTURE 21
Côte-dOr (21) : pref-drone@cote-dor.gouv.fr


Avertissement : Les données mises à disposition sont indicatives. Oxygène Drone ne pourra être tenu responsable de dégâts causés aux biens et aux personnes.